Time;durP1;ratioP1;P1;durP2;ratioP2;P2;SDS_P1;SDS_P2;PMS_P1;PMS_P2;Temp;Humidity;BMP_temperature;BMP_pressure;BME280_temperature;BME280_humidity;BME280_pressure;Samples;Min_cycle;Max_cycle;Signal;HPM_P1;HPM_P2
2022/11/01 00:00:29;;;;;;;1.23;0.70;;;13.10;99.90;;;;;;4828648;29;20132;-86
2022/11/01 00:02:55;;;;;;;1.17;0.83;;;13.00;99.90;;;;;;4829334;29;20515;-86
2022/11/01 00:05:21;;;;;;;2.13;0.90;;;13.00;99.90;;;;;;4827343;29;20049;-86
2022/11/01 00:07:46;;;;;;;1.23;1.13;;;13.00;99.90;;;;;;4829280;29;20061;-86
2022/11/01 00:10:12;;;;;;;0.87;0.57;;;13.00;99.90;;;;;;4828029;29;20132;-86
2022/11/01 00:12:38;;;;;;;1.17;0.83;;;13.00;99.90;;;;;;4829000;29;20049;-86
2022/11/01 00:15:06;;;;;;;1.00;0.73;;;13.00;99.90;;;;;;4827538;29;20309;-86
2022/11/01 00:17:32;;;;;;;1.40;1.02;;;13.00;99.90;;;;;;4829365;29;20088;-86
2022/11/01 00:19:58;;;;;;;1.67;1.00;;;13.00;99.90;;;;;;4828015;29;20445;-85
2022/11/01 00:22:25;;;;;;;0.83;0.60;;;13.00;99.90;;;;;;4842731;29;20049;-86
2022/11/01 00:24:51;;;;;;;0.88;0.50;;;13.00;99.90;;;;;;4810504;29;20053;-87
2022/11/01 00:27:17;;;;;;;0.90;0.90;;;13.00;99.90;;;;;;4844302;29;20053;-86
2022/11/01 00:29:43;;;;;;;;;;;13.00;99.90;;;;;;4844198;29;20306;-85
2022/11/01 00:32:09;;;;;;;0.75;0.45;;;13.10;99.90;;;;;;4842478;29;19975;-86
2022/11/01 00:34:35;;;;;;;2.08;0.77;;;12.20;99.90;;;;;;4829094;29;20042;-86
2022/11/01 00:37:00;;;;;;;1.00;0.67;;;13.10;99.90;;;;;;4841821;29;20069;-88
2022/11/01 00:39:26;;;;;;;1.40;0.63;;;13.10;99.90;;;;;;4813478;29;20095;-87
2022/11/01 00:41:54;;;;;;;1.33;0.60;;;12.20;99.90;;;;;;4810493;29;20109;-86
2022/11/01 00:44:20;;;;;;;2.05;0.68;;;13.10;99.90;;;;;;4828575;29;20136;-85
2022/11/01 00:46:46;;;;;;;1.00;0.60;;;13.10;99.90;;;;;;4828284;29;20270;-89
2022/11/01 00:49:12;;;;;;;0.70;0.70;;;13.10;99.90;;;;;;4812188;29;20306;-85
2022/11/01 00:51:37;;;;;;;0.67;0.50;;;13.10;99.90;;;;;;4827506;29;20489;-85
2022/11/01 00:54:03;;;;;;;1.23;0.77;;;13.20;99.90;;;;;;4842771;29;20049;-86
2022/11/01 00:56:29;;;;;;;1.25;0.73;;;13.20;99.90;;;;;;4813697;29;20350;-87
2022/11/01 00:58:55;;;;;;;1.00;0.60;;;13.10;99.90;;;;;;4826564;29;20057;-87
2022/11/01 01:01:21;;;;;;;1.43;1.00;;;13.10;99.90;;;;;;4838764;29;20492;-85
2022/11/01 01:03:49;;;;;;;1.25;0.70;;;13.10;99.90;;;;;;4827071;29;20117;-86
2022/11/01 01:06:15;;;;;;;0.93;0.80;;;13.10;99.90;;;;;;4826654;29;20085;-86
2022/11/01 01:08:40;;;;;;;0.73;0.50;;;13.10;99.90;;;;;;4828303;29;20516;-85
2022/11/01 01:11:06;;;;;;;0.40;0.40;;;13.10;99.90;;;;;;4835785;29;20087;-86
2022/11/01 01:13:32;;;;;;;0.90;0.90;;;13.20;99.90;;;;;;4812919;29;20041;-86
2022/11/01 01:15:58;;;;;;;1.77;0.77;;;13.20;99.90;;;;;;4826473;29;20045;-85
2022/11/01 01:18:24;;;;;;;0.43;0.43;;;13.20;99.90;;;;;;4857423;29;20053;-86
2022/11/01 01:20:58;;;;;;;0.90;0.80;;;13.20;99.90;;;;;;4812654;29;20546;-88
2022/11/01 01:23:24;;;;;;;2.97;0.57;;;13.20;99.90;;;;;;4827270;29;20057;-85
2022/11/01 01:25:49;;;;;;;2.65;0.77;;;13.20;99.90;;;;;;4828908;29;20408;-86
2022/11/01 01:28:17;;;;;;;1.33;0.60;;;13.30;99.90;;;;;;4824972;29;20097;-88
2022/11/01 01:30:43;;;;;;;1.98;0.60;;;13.40;99.90;;;;;;4826431;29;20076;-87
2022/11/01 01:33:09;;;;;;;1.15;0.75;;;13.30;99.90;;;;;;4811080;29;20106;-85
2022/11/01 01:35:40;;;;;;;1.23;0.87;;;13.30;99.90;;;;;;4827784;29;20105;-85
2022/11/01 01:38:06;;;;;;;0.50;0.47;;;13.30;99.90;;;;;;4841863;29;20049;-86
2022/11/01 01:40:34;;;;;;;1.95;0.40;;;13.30;99.90;;;;;;4840081;29;20049;-86
2022/11/01 01:43:00;;;;;;;0.30;0.30;;;13.30;99.90;;;;;;4827885;29;20045;-88
2022/11/01 01:45:31;;;;;;;0.93;0.70;;;13.30;99.90;;;;;;4842303;29;20461;-86
2022/11/01 01:48:07;;;;;;;0.63;0.60;;;12.40;99.90;;;;;;4826960;29;20054;-86
2022/11/01 01:50:40;;;;;;;0.43;0.40;;;13.30;99.90;;;;;;4842868;29;20052;-86
2022/11/01 01:53:25;;;;;;;0.68;0.35;;;13.40;99.90;;;;;;4822756;29;20050;-86
2022/11/01 01:56:07;;;;;;;0.63;0.50;;;13.30;99.90;;;;;;4843169;29;20080;-86
2022/11/01 01:58:40;;;;;;;1.52;0.60;;;13.30;99.90;;;;;;4826524;29;20074;-86
2022/11/01 02:01:05;;;;;;;0.68;0.60;;;13.30;99.90;;;;;;4828701;29;20046;-86
2022/11/01 02:03:34;;;;;;;0.53;0.47;;;13.30;99.90;;;;;;4812830;29;20105;-86
2022/11/01 02:06:12;;;;;;;0.60;0.60;;;12.20;99.90;;;;;;4824237;29;20053;-88
2022/11/01 02:08:44;;;;;;;0.75;0.70;;;13.20;99.90;;;;;;4842126;29;20463;-85
2022/11/01 02:11:16;;;;;;;0.93;0.70;;;13.20;99.90;;;;;;4840884;29;20074;-86
2022/11/01 02:13:44;;;;;;;0.68;0.68;;;13.30;99.90;;;;;;4826879;29;20544;-86
2022/11/01 02:16:15;;;;;;;1.30;0.65;;;13.30;99.90;;;;;;4841344;29;20428;-87
2022/11/01 02:19:18;;;;;;;0.40;0.40;;;13.30;99.90;;;;;;4827764;29;20046;-85
2022/11/01 02:21:47;;;;;;;1.38;0.57;;;13.30;99.90;;;;;;4846892;29;20051;-85
2022/11/01 02:24:28;;;;;;;0.93;0.70;;;13.30;99.90;;;;;;4826172;29;20038;-86
2022/11/01 02:27:13;;;;;;;0.82;0.68;;;13.30;99.90;;;;;;4826192;29;20061;-87
2022/11/01 02:29:51;;;;;;;1.35;0.85;;;13.30;99.90;;;;;;4842562;29;20061;-86
2022/11/01 02:32:19;;;;;;;0.90;0.70;;;13.30;99.90;;;;;;4826192;29;20317;-87
2022/11/01 02:34:55;;;;;;;0.93;0.70;;;13.30;99.90;;;;;;4840272;29;20042;-86
2022/11/01 02:37:33;;;;;;;0.85;0.65;;;13.30;99.90;;;;;;4824402;29;20488;-87
2022/11/01 02:40:10;;;;;;;1.55;0.52;;;13.30;99.90;;;;;;4827553;29;20057;-86
2022/11/01 02:42:41;;;;;;;0.52;0.50;;;13.40;99.90;;;;;;4841158;29;20533;-86
2022/11/01 02:45:27;;;;;;;0.80;0.80;;;13.30;99.90;;;;;;4827478;29;20053;-86
2022/11/01 02:47:58;;;;;;;1.48;0.73;;;13.30;99.90;;;;;;4825632;29;20094;-86
2022/11/01 02:50:36;;;;;;;0.40;0.40;;;13.30;99.90;;;;;;4825624;29;20113;-86
2022/11/01 02:53:03;;;;;;;1.17;0.77;;;13.30;99.90;;;;;;4840753;29;20165;-86
2022/11/01 02:55:28;;;;;;;0.63;0.63;;;13.30;99.90;;;;;;4845810;29;20056;-86
2022/11/01 02:58:05;;;;;;;0.63;0.63;;;13.20;99.90;;;;;;4830432;29;20053;-86
2022/11/01 03:00:35;;;;;;;0.82;0.75;;;13.20;99.90;;;;;;4830316;29;20902;-86
2022/11/01 03:03:25;;;;;;;0.57;0.40;;;13.20;99.90;;;;;;4836958;29;20077;-86
2022/11/01 03:05:53;;;;;;;1.20;0.88;;;12.00;99.90;;;;;;4831615;29;20055;-86
2022/11/01 03:08:23;;;;;;;0.38;0.30;;;13.20;99.90;;;;;;4829462;29;20106;-86
2022/11/01 03:11:05;;;;;;;0.57;0.45;;;13.20;99.90;;;;;;4846085;29;20497;-86
2022/11/01 03:13:49;;;;;;;0.45;0.20;;;13.30;99.90;;;;;;4826665;29;20457;-86
2022/11/01 03:16:42;;;;;;;0.70;0.43;;;13.30;99.90;;;;;;4843397;29;20406;-89
2022/11/01 03:19:29;;;;;;;1.42;0.82;;;13.30;99.90;;;;;;4845295;29;20053;-87
2022/11/01 03:21:55;;;;;;;0.70;0.50;;;13.40;99.90;;;;;;4841114;29;20413;-85
2022/11/01 03:24:26;;;;;;;1.23;0.60;;;13.40;99.90;;;;;;4829761;29;20092;-85
2022/11/01 03:27:01;;;;;;;1.35;0.60;;;13.50;99.90;;;;;;4843124;29;20158;-85
2022/11/01 03:29:29;;;;;;;0.95;0.40;;;13.50;99.90;;;;;;4829631;29;20053;-86
2022/11/01 03:32:00;;;;;;;0.65;0.47;;;13.60;99.90;;;;;;4815678;29;20057;-86
2022/11/01 03:34:25;;;;;;;0.68;0.68;;;13.70;99.90;;;;;;4844792;29;20042;-85
2022/11/01 03:36:56;;;;;;;0.60;0.60;;;13.80;99.90;;;;;;4830365;29;20081;-86
2022/11/01 03:39:37;;;;;;;0.35;0.35;;;13.80;99.90;;;;;;4829620;29;20516;-86
2022/11/01 03:42:08;;;;;;;0.75;0.35;;;13.80;99.90;;;;;;4845289;29;20182;-85
2022/11/01 03:44:39;;;;;;;0.73;0.35;;;13.90;99.90;;;;;;4829666;29;20049;-86
2022/11/01 03:47:06;;;;;;;0.65;0.30;;;13.90;99.90;;;;;;4845925;29;20053;-86
2022/11/01 03:49:32;;;;;;;0.63;0.63;;;13.90;99.90;;;;;;4845508;29;20057;-86
2022/11/01 03:51:58;;;;;;;0.15;0.15;;;13.90;99.90;;;;;;4829719;29;20117;-86
2022/11/01 03:54:27;;;;;;;0.20;0.20;;;13.90;99.90;;;;;;4828906;29;20055;-86
2022/11/01 03:56:56;;;;;;;1.83;0.55;;;14.00;99.90;;;;;;4814798;29;20106;-86
2022/11/01 03:59:24;;;;;;;0.80;0.50;;;14.00;99.90;;;;;;4829713;29;20045;-89
2022/11/01 04:01:53;;;;;;;0.55;0.43;;;14.00;99.90;;;;;;4829603;29;20076;-85
2022/11/01 04:04:21;;;;;;;0.30;0.30;;;14.10;99.90;;;;;;4828249;29;20045;-87
2022/11/01 04:06:51;;;;;;;0.68;0.25;;;14.10;99.90;;;;;;4829288;29;20045;-86
2022/11/01 04:09:24;;;;;;;1.15;0.50;;;14.10;99.90;;;;;;4829692;29;20050;-86
2022/11/01 04:11:53;;;;;;;0.40;0.20;;;13.50;99.90;;;;;;4829807;29;20050;-86
2022/11/01 04:22:38;;;;;;;0.10;0.10;;;14.20;99.90;;;;;;4831975;29;20049;-85
2022/11/01 04:25:04;;;;;;;0.45;0.30;;;14.20;99.90;;;;;;4821909;29;20113;-86
2022/11/01 04:27:30;;;;;;;0.30;0.30;;;14.20;99.90;;;;;;4812529;29;20046;-86
2022/11/01 04:29:58;;;;;;;0.17;0.10;;;14.30;99.90;;;;;;4844660;29;20049;-86
2022/11/01 04:32:24;;;;;;;0.88;0.60;;;14.30;99.90;;;;;;4814474;29;20049;-86
2022/11/01 04:34:50;;;;;;;1.47;0.40;;;14.30;99.90;;;;;;4843512;29;20068;-87
2022/11/01 04:37:15;;;;;;;0.40;0.23;;;14.40;99.90;;;;;;4829093;29;20103;-86
2022/11/01 04:39:43;;;;;;;0.80;0.37;;;14.50;99.90;;;;;;4810530;29;20087;-86
2022/11/01 04:42:09;;;;;;;0.57;0.45;;;14.50;99.90;;;;;;4829340;29;20045;-86
2022/11/01 04:44:35;;;;;;;0.77;0.60;;;14.50;99.90;;;;;;4813380;29;20128;-86
2022/11/01 04:47:01;;;;;;;0.13;0.10;;;14.50;99.90;;;;;;4844428;29;20137;-86
2022/11/01 04:49:27;;;;;;;0.17;0.17;;;14.50;99.90;;;;;;4843847;29;20053;-86
2022/11/01 04:51:58;;;;;;;0.63;0.63;;;14.50;99.90;;;;;;4810516;29;20057;-88
2022/11/01 04:54:24;;;;;;;0.35;0.30;;;14.10;99.90;;;;;;4837991;29;20045;-86
2022/11/01 04:56:53;;;;;;;0.37;0.37;;;14.10;99.90;;;;;;4828660;29;20491;-86
2022/11/01 04:59:19;;;;;;;0.25;0.25;;;14.50;99.90;;;;;;4828917;29;20412;-86
2022/11/01 05:01:44;;;;;;;0.23;0.23;;;14.60;99.90;;;;;;4828376;29;20127;-86
2022/11/01 05:04:10;;;;;;;1.13;0.52;;;14.60;99.90;;;;;;4813805;29;20045;-86
2022/11/01 05:06:38;;;;;;;0.23;0.17;;;14.60;99.90;;;;;;4797682;29;20057;-86
2022/11/01 05:09:04;;;;;;;0.45;0.45;;;14.60;99.90;;;;;;4841147;29;20806;-86
2022/11/01 05:11:29;;;;;;;0.20;0.20;;;14.60;99.90;;;;;;4796707;29;20053;-86
2022/11/01 05:13:55;;;;;;;0.10;0.10;;;14.60;99.90;;;;;;4810961;29;20049;-86
2022/11/01 05:16:21;;;;;;;0.45;0.45;;;14.60;99.90;;;;;;4827894;29;20045;-85
2022/11/01 05:18:48;;;;;;;0.20;0.20;;;14.60;99.90;;;;;;4827474;29;20092;-86
2022/11/01 05:21:16;;;;;;;0.20;0.20;;;14.60;99.90;;;;;;4828486;29;20080;-86
2022/11/01 05:23:44;;;;;;;0.40;0.40;;;14.60;99.90;;;;;;4827446;29;20041;-86
2022/11/01 05:26:12;;;;;;;0.50;0.40;;;14.60;99.90;;;;;;4844006;29;20053;-87
2022/11/01 05:28:38;;;;;;;1.23;0.28;;;14.60;99.90;;;;;;4827753;29;20046;-86
2022/11/01 05:31:04;;;;;;;0.75;0.30;;;14.60;99.90;;;;;;4819965;29;20045;-86
2022/11/01 05:33:30;;;;;;;1.33;0.38;;;14.70;99.90;;;;;;4813252;29;20077;-86
2022/11/01 05:35:55;;;;;;;0.60;0.32;;;14.70;99.90;;;;;;4827694;29;20068;-86
2022/11/01 05:38:21;;;;;;;0.10;0.10;;;14.70;99.90;;;;;;4827855;29;20065;-87
2022/11/01 05:40:47;;;;;;;0.22;0.22;;;14.80;99.90;;;;;;4812743;29;20814;-87
2022/11/01 05:43:13;;;;;;;0.20;0.20;;;14.80;99.90;;;;;;4828157;29;20089;-87
2022/11/01 05:45:39;;;;;;;0.50;0.20;;;14.90;99.90;;;;;;4828079;29;20497;-89
2022/11/01 05:48:05;;;;;;;0.60;0.30;;;15.00;99.90;;;;;;4827544;29;20057;-88
2022/11/01 05:50:31;;;;;;;0.40;0.40;;;15.00;99.90;;;;;;4812760;29;20052;-87
2022/11/01 05:53:10;;;;;;;0.20;0.20;;;14.90;99.90;;;;;;4828591;29;20556;-86
2022/11/01 05:55:36;;;;;;;0.40;0.40;;;15.00;99.90;;;;;;4855979;29;20100;-87
2022/11/01 05:58:02;;;;;;;0.90;0.30;;;15.00;99.90;;;;;;4842543;29;20050;-86
2022/11/01 06:00:28;;;;;;;0.20;0.20;;;15.00;99.90;;;;;;4827806;29;20086;-86
2022/11/01 06:02:59;;;;;;;0.10;0.10;;;15.00;99.90;;;;;;4827274;29;20057;-87
2022/11/01 06:05:26;;;;;;;0.20;0.20;;;15.00;99.90;;;;;;4841279;29;20138;-87
2022/11/01 06:07:52;;;;;;;0.20;0.20;;;14.90;99.90;;;;;;4827427;29;20045;-86
2022/11/01 06:10:18;;;;;;;0.30;0.20;;;14.90;99.90;;;;;;4812575;29;20496;-86
2022/11/01 06:12:43;;;;;;;0.30;0.30;;;14.70;99.90;;;;;;4841536;29;20042;-90
2022/11/01 06:15:10;;;;;;;0.27;0.27;;;14.70;99.90;;;;;;4827517;29;20499;-86
2022/11/01 06:17:35;;;;;;;0.15;0.15;;;14.70;99.90;;;;;;4812123;29;20291;-86
2022/11/01 06:20:01;;;;;;;0.30;0.28;;;14.70;99.90;;;;;;4811120;29;20129;-86
2022/11/01 06:22:27;;;;;;;0.10;0.00;;;14.60;99.90;;;;;;4827458;29;20125;-88
2022/11/01 06:24:53;;;;;;;0.10;0.10;;;14.60;99.90;;;;;;4821971;29;20053;-86
2022/11/01 06:27:18;;;;;;;0.40;0.40;;;14.50;99.90;;;;;;4826972;29;20046;-87
2022/11/01 06:29:47;;;;;;;0.00;0.00;;;14.30;99.90;;;;;;4826508;29;20312;-87
2022/11/01 06:32:12;;;;;;;0.00;0.00;;;14.20;99.90;;;;;;4797366;29;20809;-87
2022/11/01 06:34:41;;;;;;;0.00;0.00;;;14.00;99.90;;;;;;4827524;29;20568;-87
2022/11/01 06:37:09;;;;;;;0.00;0.00;;;14.20;99.90;;;;;;4826295;29;20156;-87
2022/11/01 06:39:35;;;;;;;0.13;0.08;;;14.10;99.90;;;;;;4810033;29;20050;-87
2022/11/01 06:42:04;;;;;;;0.10;0.10;;;13.90;99.90;;;;;;4826892;29;20113;-86
2022/11/01 06:44:29;;;;;;;0.00;0.00;;;14.00;99.90;;;;;;4840652;29;20485;-86
2022/11/01 06:46:55;;;;;;;0.30;0.30;;;13.90;99.90;;;;;;4826953;29;20128;-87
2022/11/01 06:49:21;;;;;;;0.10;0.10;;;13.80;99.90;;;;;;4839911;29;20128;-87
2022/11/01 06:51:47;;;;;;;0.20;0.10;;;13.70;99.90;;;;;;4824524;29;20057;-86
2022/11/01 06:54:13;;;;;;;0.10;0.10;;;13.80;99.90;;;;;;4808070;29;20053;-88
2022/11/01 06:56:39;;;;;;;0.00;0.00;;;13.70;99.90;;;;;;4844623;29;20061;-86
2022/11/01 06:59:05;;;;;;;0.80;0.80;;;13.70;99.90;;;;;;4843802;29;20049;-91
2022/11/01 07:01:33;;;;;;;0.20;0.20;;;13.60;99.90;;;;;;4826811;29;20501;-91
2022/11/01 07:04:01;;;;;;;0.10;0.10;;;13.70;99.90;;;;;;4837793;29;20042;-92
2022/11/01 07:06:29;;;;;;;0.00;0.00;;;13.60;99.90;;;;;;4827082;29;20096;-91
2022/11/01 07:08:57;;;;;;;0.10;0.10;;;13.60;99.90;;;;;;4828606;29;20057;-92
2022/11/01 07:11:55;;;;;;;0.00;0.00;;;13.50;99.90;;;;;;4826588;29;20049;-96
2022/11/01 07:14:29;;;;;;;0.00;0.00;;;14.20;99.90;;;;;;4788126;29;20160;-89
2022/11/01 07:17:00;;;;;;;0.00;0.00;;;14.00;99.90;;;;;;4794388;29;20060;-95
2022/11/01 07:19:56;;;;;;;0.05;0.05;;;13.50;99.90;;;;;;4790180;29;20062;-96
2022/11/01 07:22:24;;;;;;;0.10;0.00;;;13.50;99.90;;;;;;4773826;29;20054;-91
2022/11/01 07:24:56;;;;;;;0.00;0.00;;;13.50;99.90;;;;;;4794937;29;20050;-90
2022/11/01 07:27:24;;;;;;;0.00;0.00;;;13.50;99.90;;;;;;4788677;29;20054;-91
2022/11/01 07:30:01;;;;;;;0.00;0.00;;;13.50;99.90;;;;;;4779927;29;20136;-92
2022/11/01 07:32:35;;;;;;;0.00;0.00;;;13.50;99.90;;;;;;4803115;29;20066;-90
2022/11/01 07:35:03;;;;;;;0.60;0.43;;;13.60;99.90;;;;;;4785082;29;20050;-90
2022/11/01 07:37:41;;;;;;;;;;;;;;;;;;;;;
2022/11/01 07:40:11;;;;;;;0.20;0.20;;;13.90;99.90;;;;;;4798295;29;20063;-89
2022/11/01 07:42:46;;;;;;;0.20;0.20;;;14.00;99.90;;;;;;4784338;29;20628;-89
2022/11/01 07:45:15;;;;;;;0.10;0.10;;;14.00;99.90;;;;;;4801101;29;20050;-87
2022/11/01 07:47:41;;;;;;;0.10;0.10;;;14.10;99.90;;;;;;4814676;29;20053;-87
2022/11/01 07:50:11;;;;;;;0.50;0.10;;;13.30;99.90;;;;;;4842859;29;20125;-88
2022/11/01 07:52:37;;;;;;;0.00;0.00;;;14.10;99.90;;;;;;4843133;29;20516;-87
2022/11/01 07:55:10;;;;;;;0.00;0.00;;;14.00;99.90;;;;;;4829569;29;20124;-87
2022/11/01 07:57:40;;;;;;;0.03;0.03;;;14.00;99.90;;;;;;4828000;29;20797;-87
2022/11/01 08:00:08;;;;;;;0.10;0.10;;;14.00;99.90;;;;;;4814467;29;20049;-88
2022/11/01 08:02:41;;;;;;;0.00;0.00;;;14.10;99.90;;;;;;4845170;29;20037;-88
2022/11/01 08:05:09;;;;;;;0.10;0.00;;;13.10;99.90;;;;;;4813657;29;20231;-86
2022/11/01 08:07:41;;;;;;;0.55;0.20;;;13.90;99.90;;;;;;4829398;29;20053;-88
2022/11/01 08:10:14;;;;;;;0.15;0.10;;;14.20;99.90;;;;;;4827329;29;20069;-88
2022/11/01 08:12:42;;;;;;;0.00;0.00;;;14.30;99.90;;;;;;4844960;29;20488;-87
2022/11/01 08:15:08;;;;;;;0.10;0.10;;;15.40;99.90;;;;;;4828790;29;20094;-88
2022/11/01 08:17:34;;;;;;;;;;;14.30;99.90;;;;;;4845679;29;20041;-88
2022/11/01 08:20:03;;;;;;;0.10;0.10;;;14.30;99.90;;;;;;4828852;29;20372;-88
2022/11/01 08:22:28;;;;;;;0.00;0.00;;;14.30;99.90;;;;;;4828086;29;20081;-87
2022/11/01 08:24:54;;;;;;;0.33;0.33;;;14.20;99.90;;;;;;4813597;29;20053;-86
2022/11/01 08:27:23;;;;;;;0.10;0.10;;;14.20;99.90;;;;;;4844961;29;20151;-86
2022/11/01 08:29:49;;;;;;;0.08;0.00;;;14.20;99.90;;;;;;4844563;29;20048;-86
2022/11/01 08:32:22;;;;;;;0.08;0.08;;;14.20;99.90;;;;;;4812362;29;20053;-87
2022/11/01 08:34:48;;;;;;;0.00;0.00;;;14.10;99.90;;;;;;4841167;29;20564;-87
2022/11/01 08:37:14;;;;;;;0.03;0.03;;;14.10;99.90;;;;;;4843416;29;20508;-88
2022/11/01 08:39:39;;;;;;;0.15;0.05;;;14.00;99.90;;;;;;4828997;29;20516;-86
2022/11/01 08:42:08;;;;;;;0.00;0.00;;;14.10;99.90;;;;;;4829510;29;20053;-93
2022/11/01 08:44:33;;;;;;;0.65;0.25;;;15.00;99.90;;;;;;4842238;29;20125;-85
2022/11/01 08:47:00;;;;;;;0.00;0.00;;;14.00;99.90;;;;;;4812427;29;20217;-88
2022/11/01 08:49:26;;;;;;;0.28;0.17;;;14.00;99.90;;;;;;4830516;29;20054;-88
2022/11/01 08:51:53;;;;;;;0.00;0.00;;;14.00;99.90;;;;;;4814487;29;20140;-88
2022/11/01 08:54:19;;;;;;;0.13;0.13;;;14.00;99.90;;;;;;4816278;29;20106;-87
2022/11/01 08:56:47;;;;;;;0.00;0.00;;;13.30;99.90;;;;;;4821702;29;20042;-87
2022/11/01 08:59:12;;;;;;;0.10;0.10;;;14.10;99.90;;;;;;4820942;29;20054;-86
2022/11/01 09:01:38;;;;;;;0.00;0.00;;;14.20;99.90;;;;;;4845341;29;20061;-87
2022/11/01 09:04:05;;;;;;;0.67;0.30;;;14.30;99.90;;;;;;4831265;29;20120;-86
2022/11/01 09:06:31;;;;;;;0.17;0.10;;;14.20;99.90;;;;;;4845562;29;20110;-86
2022/11/01 09:09:05;;;;;;;0.30;0.00;;;14.50;99.90;;;;;;4831285;29;20045;-87
2022/11/01 09:11:32;;;;;;;0.00;0.00;;;14.60;99.90;;;;;;4828963;29;20053;-89
2022/11/01 09:13:58;;;;;;;0.10;0.10;;;14.60;99.90;;;;;;4828660;29;20033;-87
2022/11/01 09:16:24;;;;;;;0.10;0.10;;;14.60;99.90;;;;;;4810518;29;20110;-89
2022/11/01 09:18:49;;;;;;;0.00;0.00;;;14.70;99.90;;;;;;4833404;29;20504;-83
2022/11/01 09:21:16;;;;;;;0.27;0.27;;;14.70;99.90;;;;;;4843264;29;20049;-84
2022/11/01 09:23:44;;;;;;;0.10;0.03;;;14.80;99.90;;;;;;4843888;29;20057;-88
2022/11/01 09:26:10;;;;;;;0.00;0.00;;;14.70;99.90;;;;;;4829058;29;20053;-85
2022/11/01 09:28:36;;;;;;;3.33;0.13;;;14.80;99.90;;;;;;4827930;29;20057;-85
2022/11/01 09:31:08;;;;;;;0.00;0.00;;;14.80;99.90;;;;;;4842040;29;20072;-86
2022/11/01 09:33:34;;;;;;;0.10;0.10;;;14.90;99.90;;;;;;4828400;29;20042;-92
2022/11/01 09:36:02;;;;;;;1.92;0.20;;;15.00;99.90;;;;;;4843605;29;20081;-91
2022/11/01 09:38:39;;;;;;;0.40;0.20;;;14.40;99.90;;;;;;4827911;29;20041;-91
2022/11/01 09:41:37;;;;;;;;;;;;;;;;;;;;;
2022/11/01 09:44:22;;;;;;;0.00;0.00;;;14.10;99.90;;;;;;4843384;29;19930;-90
2022/11/01 09:47:12;;;;;;;;;;;;;;;;;;;;;
2022/11/01 09:49:53;;;;;;;0.10;0.10;;;15.20;99.90;;;;;;4827733;29;20053;-90
2022/11/01 09:52:31;;;;;;;0.00;0.00;;;15.40;99.90;;;;;;4843154;29;20058;-88
2022/11/01 09:55:46;;;;;;;0.00;0.00;;;15.40;99.90;;;;;;4829702;29;20092;-91
2022/11/01 09:58:52;;;;;;;0.05;0.05;;;16.40;99.90;;;;;;4811218;29;20072;-90
2022/11/01 10:01:42;;;;;;;0.00;0.00;;;14.90;99.90;;;;;;4844528;29;20049;-91
2022/11/01 10:04:46;;;;;;;0.70;0.70;;;16.00;99.90;;;;;;4831678;29;20050;-92
2022/11/01 10:07:31;;;;;;;0.00;0.00;;;16.00;99.90;;;;;;4837762;29;20058;-93
2022/11/01 10:10:29;;;;;;;0.10;0.10;;;16.00;99.90;;;;;;4819593;29;20057;-92
2022/11/01 10:13:30;;;;;;;0.00;0.00;;;15.90;99.90;;;;;;4830080;29;20057;-95
2022/11/01 10:16:05;;;;;;;0.10;0.10;;;15.80;99.90;;;;;;4811425;29;20137;-94
2022/11/01 10:18:57;;;;;;;0.30;0.30;;;16.30;99.90;;;;;;4811621;29;20050;-92
2022/11/01 10:21:31;;;;;;;0.00;0.00;;;15.60;99.90;;;;;;4836117;29;20053;-95
2022/11/01 10:24:08;;;;;;;0.10;0.10;;;14.50;99.90;;;;;;4847985;29;20056;-92
2022/11/01 10:26:35;;;;;;;0.00;0.00;;;15.60;99.90;;;;;;4848445;29;20057;-94
2022/11/01 10:29:22;;;;;;;0.00;0.00;;;15.80;99.90;;;;;;4826749;29;20053;-92
2022/11/01 10:31:51;;;;;;;0.35;0.17;;;15.60;99.90;;;;;;4840816;29;20082;-89
2022/11/01 10:34:22;;;;;;;0.15;0.10;;;15.70;99.90;;;;;;4844591;29;20052;-89
2022/11/01 10:36:57;;;;;;;0.00;0.00;;;15.80;99.90;;;;;;4845372;29;20045;-87
2022/11/01 10:42:44;;;;;;;0.00;0.00;;;16.00;99.90;;;;;;4836300;29;20524;-92
2022/11/01 10:46:13;;;;;;;;;;;;;;;;;;;;;
2022/11/01 10:49:09;;;;;;;;;;;;;;;;;;;;;
2022/11/01 10:51:36;;;;;;;0.28;0.20;;;15.80;99.90;;;;;;4843860;29;20093;-89
2022/11/01 10:54:43;;;;;;;0.03;0.03;;;15.60;99.90;;;;;;4829182;29;20145;-88
2022/11/01 10:57:30;;;;;;;0.00;0.00;;;14.70;99.90;;;;;;4828315;29;20057;-87
2022/11/01 10:59:58;;;;;;;0.28;0.10;;;15.40;99.90;;;;;;4844334;29;20050;-87
2022/11/01 11:02:55;;;;;;;0.50;0.10;;;15.30;99.90;;;;;;4828938;29;20060;-88
2022/11/01 11:05:52;;;;;;;0.10;0.10;;;15.30;99.90;;;;;;4821245;29;20054;-87
2022/11/01 11:08:28;;;;;;;0.20;0.20;;;15.50;99.90;;;;;;4831412;29;20435;-87
2022/11/01 11:11:07;;;;;;;0.00;0.00;;;15.20;99.90;;;;;;4818260;29;20053;-84
2022/11/01 11:13:39;;;;;;;0.10;0.10;;;14.70;99.90;;;;;;4827337;29;20506;-91
2022/11/01 11:16:13;;;;;;;0.30;0.30;;;14.40;99.90;;;;;;4830225;29;20052;-85
2022/11/01 11:18:41;;;;;;;0.45;0.20;;;14.90;99.90;;;;;;4829835;29;20050;-84
2022/11/01 11:21:13;;;;;;;0.85;0.30;;;14.90;99.90;;;;;;4845743;29;20053;-85
2022/11/01 11:23:45;;;;;;;0.00;0.00;;;15.10;99.90;;;;;;4846097;29;20493;-86
2022/11/01 11:26:17;;;;;;;0.57;0.10;;;15.40;99.90;;;;;;4845817;29;20045;-85
2022/11/01 11:28:50;;;;;;;0.00;0.00;;;15.80;99.90;;;;;;4845862;29;20509;-88
2022/11/01 11:31:27;;;;;;;0.10;0.10;;;16.90;99.90;;;;;;4829912;29;20053;-89
2022/11/01 11:33:57;;;;;;;0.08;0.08;;;16.10;99.90;;;;;;4839531;29;20109;-89
2022/11/01 11:36:37;;;;;;;0.00;0.00;;;16.20;99.90;;;;;;4847623;29;20049;-88
2022/11/01 11:39:04;;;;;;;0.10;0.10;;;16.10;99.90;;;;;;4830670;29;20204;-90
2022/11/01 11:41:35;;;;;;;0.10;0.10;;;16.10;99.90;;;;;;4831719;29;20399;-89
2022/11/01 11:44:30;;;;;;;0.00;0.00;;;16.40;99.90;;;;;;4833085;29;20064;-88
2022/11/01 11:46:58;;;;;;;0.10;0.10;;;16.20;99.90;;;;;;4831584;29;20053;-88
2022/11/01 11:49:53;;;;;;;0.10;0.10;;;16.50;99.90;;;;;;4832147;29;20057;-89
2022/11/01 11:52:38;;;;;;;0.30;0.20;;;16.80;99.90;;;;;;4830446;29;20058;-88
2022/11/01 11:55:33;;;;;;;0.28;0.20;;;16.40;99.90;;;;;;4831748;29;20052;-87
2022/11/01 11:58:04;;;;;;;0.08;0.08;;;16.70;99.90;;;;;;4817287;29;20445;-92
2022/11/01 12:00:33;;;;;;;0.00;0.00;;;17.30;99.90;;;;;;4828517;29;20049;-88
2022/11/01 12:03:15;;;;;;;0.20;0.20;;;17.40;99.90;;;;;;4828991;29;20042;-89
2022/11/01 12:06:26;;;;;;;0.00;0.00;;;17.40;99.90;;;;;;4823585;29;20056;-89
2022/11/01 12:08:55;;;;;;;0.10;0.10;;;17.50;99.90;;;;;;4836056;29;20072;-90
2022/11/01 12:11:45;;;;;;;0.00;0.00;;;17.60;99.90;;;;;;4847175;29;20469;-93
2022/11/01 12:14:43;;;;;;;0.00;0.00;;;17.60;99.90;;;;;;4842455;29;20496;-89
2022/11/01 12:17:35;;;;;;;;;;;17.20;99.90;;;;;;4832386;29;20390;-90
2022/11/01 12:20:32;;;;;;;0.15;0.00;;;18.20;99.90;;;;;;4830338;29;20383;-93
2022/11/01 12:23:21;;;;;;;0.00;0.00;;;17.60;99.90;;;;;;4830136;29;20247;-93
2022/11/01 12:25:53;;;;;;;1.10;0.05;;;16.90;99.90;;;;;;4818121;29;20085;-88
2022/11/01 12:28:33;;;;;;;0.17;0.15;;;17.40;99.90;;;;;;4852372;29;20485;-88
2022/11/01 12:31:13;;;;;;;0.32;0.10;;;17.60;99.90;;;;;;4845113;29;20057;-86
2022/11/01 12:33:45;;;;;;;0.00;0.00;;;17.90;99.90;;;;;;4845881;29;20049;-92
2022/11/01 12:36:20;;;;;;;0.20;0.20;;;18.20;99.90;;;;;;4836560;29;20048;-87
2022/11/01 12:38:52;;;;;;;0.20;0.00;;;18.70;99.90;;;;;;4843640;29;20080;-88
2022/11/01 12:41:37;;;;;;;0.20;0.20;;;18.30;99.90;;;;;;4830337;29;20496;-88
2022/11/01 12:44:24;;;;;;;0.00;0.00;;;18.30;99.90;;;;;;4845225;29;20056;-88
2022/11/01 12:47:11;;;;;;;0.17;0.17;;;18.50;99.90;;;;;;4830508;29;20549;-87
2022/11/01 12:50:00;;;;;;;0.00;0.00;;;18.50;99.90;;;;;;4829472;29;20058;-88
2022/11/01 12:52:47;;;;;;;0.40;0.32;;;18.50;99.90;;;;;;4845790;29;20140;-88
2022/11/01 12:55:15;;;;;;;;;;;18.60;99.90;;;;;;4829922;29;20053;-88
2022/11/01 12:57:41;;;;;;;0.15;0.00;;;18.70;99.90;;;;;;4831368;29;19930;-87
2022/11/01 13:00:16;;;;;;;0.10;0.10;;;18.20;99.90;;;;;;4815751;29;20045;-87
2022/11/01 13:02:54;;;;;;;0.35;0.22;;;18.80;99.90;;;;;;4827150;29;20053;-87
2022/11/01 13:06:01;;;;;;;0.10;0.10;;;18.70;99.90;;;;;;4839201;29;20077;-88
2022/11/01 13:09:10;;;;;;;0.00;0.00;;;18.60;99.90;;;;;;4831080;29;20045;-88
2022/11/01 13:12:08;;;;;;;0.00;0.00;;;18.60;99.90;;;;;;4845197;29;20057;-88
2022/11/01 13:14:51;;;;;;;0.22;0.10;;;18.50;99.90;;;;;;4829288;29;20042;-87
2022/11/01 13:18:13;;;;;;;0.03;0.00;;;17.60;99.90;;;;;;4829845;29;20501;-89
2022/11/01 13:20:50;;;;;;;0.00;0.00;;;17.80;99.90;;;;;;4743824;30;20048;-88
2022/11/01 13:24:03;;;;;;;0.05;0.05;;;17.80;99.90;;;;;;4844675;29;20429;-88
2022/11/01 13:26:56;;;;;;;0.13;0.10;;;18.30;99.90;;;;;;4829836;29;20069;-88
2022/11/01 13:29:40;;;;;;;0.20;0.17;;;17.50;99.90;;;;;;4823146;29;20049;-88
2022/11/01 13:32:36;;;;;;;0.08;0.00;;;17.10;99.90;;;;;;4820477;29;20118;-88
2022/11/01 13:35:59;;;;;;;2.10;0.20;;;17.80;99.90;;;;;;4842023;29;20464;-87